Time;durP1;ratioP1;P1;durP2;ratioP2;P2;SDS_P1;SDS_P2;PMS_P1;PMS_P2;Temp;Humidity;BMP_temperature;BMP_pressure;BME280_temperature;BME280_humidity;BME280_pressure;Samples;Min_cycle;Max_cycle;Signal;HPM_P1;HPM_P2
2022/11/01 00:01:32;;;;;;;20.37;11.60;;;13.00;1.00;;;;;;5071222;28;20486;-52
2022/11/01 00:03:58;;;;;;;20.45;11.10;;;13.00;1.00;;;;;;5072583;28;20534;-52
2022/11/01 00:06:24;;;;;;;17.23;10.03;;;13.00;1.00;;;;;;5071630;28;20387;-52
2022/11/01 00:08:50;;;;;;;19.50;11.25;;;13.10;1.00;;;;;;5072414;28;20410;-52
2022/11/01 00:11:17;;;;;;;21.00;10.65;;;13.10;1.00;;;;;;5072222;28;20729;-57
2022/11/01 00:13:47;;;;;;;21.10;10.02;;;13.20;1.00;;;;;;5071910;28;20412;-51
2022/11/01 00:16:14;;;;;;;17.87;9.30;;;13.20;1.00;;;;;;5072369;28;20395;-52
2022/11/01 00:18:40;;;;;;;19.27;9.82;;;13.20;1.00;;;;;;5071823;28;20376;-51
2022/11/01 00:21:06;;;;;;;20.55;10.70;;;13.10;1.00;;;;;;5072038;28;20433;-51
2022/11/01 00:23:32;;;;;;;16.20;9.17;;;13.30;1.00;;;;;;5071424;28;20391;-52
2022/11/01 00:25:59;;;;;;;19.02;8.85;;;13.30;1.00;;;;;;5072217;28;20383;-52
2022/11/01 00:28:25;;;;;;;16.50;9.20;;;13.30;1.00;;;;;;5071488;28;20437;-52
2022/11/01 00:30:52;;;;;;;20.67;8.98;;;13.30;1.00;;;;;;5071966;28;20376;-51
2022/11/01 00:33:17;;;;;;;17.45;8.45;;;13.30;1.00;;;;;;5071429;28;20403;-52
2022/11/01 00:35:45;;;;;;;17.03;9.90;;;13.40;1.00;;;;;;5071925;28;20705;-51
2022/11/01 00:38:11;;;;;;;19.15;9.95;;;13.50;1.00;;;;;;5071321;28;20454;-52
2022/11/01 00:40:36;;;;;;;21.50;10.20;;;13.50;1.00;;;;;;5071362;28;20841;-52
2022/11/01 00:43:02;;;;;;;18.52;10.55;;;13.40;1.00;;;;;;5071828;28;20372;-52
2022/11/01 00:45:28;;;;;;;18.23;10.70;;;13.30;1.00;;;;;;5071701;28;20841;-51
2022/11/01 00:47:53;;;;;;;21.87;10.87;;;13.20;1.00;;;;;;5071902;28;20368;-52
2022/11/01 00:50:19;;;;;;;20.77;11.70;;;13.10;1.00;;;;;;5071769;28;20717;-52
2022/11/01 00:52:45;;;;;;;19.42;11.27;;;13.10;1.00;;;;;;5071701;28;20888;-51
2022/11/01 00:55:10;;;;;;;21.35;11.20;;;13.10;1.00;;;;;;5071800;28;20412;-51
2022/11/01 00:57:36;;;;;;;21.00;10.57;;;13.10;1.00;;;;;;5070887;28;20922;-51
2022/11/01 01:00:03;;;;;;;23.30;11.13;;;12.90;1.00;;;;;;5071847;28;20384;-51
2022/11/01 01:02:29;;;;;;;22.60;11.20;;;12.90;1.00;;;;;;5071167;28;20388;-51
2022/11/01 01:04:54;;;;;;;21.98;10.35;;;12.90;1.00;;;;;;5071488;28;20530;-51
2022/11/01 01:07:20;;;;;;;20.88;10.63;;;12.90;1.00;;;;;;5053389;28;20391;-51
2022/11/01 01:09:46;;;;;;;23.00;9.93;;;12.80;1.00;;;;;;5071501;28;20387;-51
2022/11/01 01:12:11;;;;;;;19.83;10.20;;;12.80;18.00;;;;;;5071115;28;20442;-51
2022/11/01 01:14:37;;;;;;;20.55;11.02;;;12.90;1.00;;;;;;5070820;28;20426;-52
2022/11/01 01:17:02;;;;;;;20.33;10.40;;;12.90;1.00;;;;;;5071650;28;20437;-52
2022/11/01 01:19:29;;;;;;;17.98;9.65;;;12.90;1.00;;;;;;5070576;28;20876;-52
2022/11/01 01:21:55;;;;;;;19.38;10.40;;;13.00;1.00;;;;;;5053914;28;20380;-52
2022/11/01 01:24:21;;;;;;;22.50;10.30;;;13.10;1.00;;;;;;5070189;28;20381;-56
2022/11/01 01:26:47;;;;;;;20.55;10.45;;;13.10;1.00;;;;;;5070714;28;20539;-52
2022/11/01 01:29:12;;;;;;;21.58;10.82;;;13.10;1.00;;;;;;5071181;28;20466;-53
2022/11/01 01:31:38;;;;;;;20.50;9.93;;;13.00;1.00;;;;;;5070206;28;21106;-52
2022/11/01 01:34:04;;;;;;;18.92;10.05;;;13.00;1.00;;;;;;5070706;28;20419;-52
2022/11/01 01:36:29;;;;;;;20.95;10.30;;;13.00;1.00;;;;;;5069909;28;20519;-52
2022/11/01 01:38:55;;;;;;;21.13;11.07;;;13.00;1.00;;;;;;5070881;28;20853;-52
2022/11/01 01:44:42;;;;;;;17.45;9.95;;;13.00;1.00;;;;;;5070475;28;20383;-52
2022/11/01 01:47:17;;;;;;;17.25;9.32;;;13.00;1.00;;;;;;5070657;28;20818;-52
2022/11/01 01:49:44;;;;;;;19.57;9.50;;;13.00;1.00;;;;;;5069081;28;20734;-52
2022/11/01 01:52:10;;;;;;;21.77;9.90;;;13.10;1.00;;;;;;5070279;28;20384;-52
2022/11/01 01:54:36;;;;;;;16.88;9.80;;;13.20;1.00;;;;;;5069777;28;20411;-52
2022/11/01 01:57:03;;;;;;;21.95;9.52;;;13.20;1.00;;;;;;5070283;28;20430;-52
2022/11/01 01:59:29;;;;;;;19.00;10.10;;;13.20;1.00;;;;;;5069496;28;20784;-53
2022/11/01 02:01:57;;;;;;;16.40;10.00;;;13.20;1.00;;;;;;5070273;28;20907;-52
2022/11/01 02:04:38;;;;;;;20.73;9.27;;;13.40;1.00;;;;;;5069621;28;20390;-52
2022/11/01 02:07:04;;;;;;;17.85;9.73;;;13.40;1.00;;;;;;5070317;28;20387;-52
2022/11/01 02:09:31;;;;;;;15.77;8.82;;;13.40;1.00;;;;;;5069318;28;20376;-52
2022/11/01 02:11:57;;;;;;;18.60;9.87;;;13.40;1.00;;;;;;5070228;28;20379;-52
2022/11/01 02:14:24;;;;;;;18.17;8.95;;;13.30;1.00;;;;;;5069616;28;20416;-52
2022/11/01 02:17:13;;;;;;;21.25;9.60;;;13.30;1.00;;;;;;5069853;28;20394;-53
2022/11/01 02:20:06;;;;;;;15.65;8.48;;;13.50;1.00;;;;;;5069178;28;20391;-52
2022/11/01 02:22:50;;;;;;;17.50;9.60;;;13.50;1.00;;;;;;5069359;28;21085;-52
2022/11/01 02:25:41;;;;;;;16.95;9.60;;;13.60;1.00;;;;;;5069357;28;20871;-53
2022/11/01 02:28:25;;;;;;;16.63;9.05;;;13.60;1.00;;;;;;5069701;28;20925;-52
2022/11/01 02:31:09;;;;;;;16.48;8.68;;;13.50;1.00;;;;;;5069783;28;20384;-52
2022/11/01 02:33:45;;;;;;;17.70;9.80;;;13.50;1.00;;;;;;5069107;28;20415;-53
2022/11/01 02:36:20;;;;;;;17.13;9.23;;;13.50;1.00;;;;;;5069602;28;20499;-52
2022/11/01 02:39:13;;;;;;;17.27;9.35;;;13.60;1.00;;;;;;5069742;28;20490;-52
2022/11/01 02:41:46;;;;;;;15.07;8.50;;;13.70;1.00;;;;;;5068679;28;21036;-52
2022/11/01 02:44:17;;;;;;;19.20;9.20;;;13.80;1.00;;;;;;5069487;28;20380;-54
2022/11/01 02:47:00;;;;;;;17.73;9.48;;;13.80;1.00;;;;;;5069307;28;20372;-52
2022/11/01 02:49:38;;;;;;;18.57;9.20;;;13.70;1.00;;;;;;5068988;28;20395;-52
2022/11/01 02:52:07;;;;;;;20.03;8.80;;;13.70;1.00;;;;;;5069813;28;20387;-52
2022/11/01 02:54:56;;;;;;;17.25;8.45;;;13.60;1.00;;;;;;5069029;28;20873;-52
2022/11/01 02:57:21;;;;;;;16.58;8.35;;;13.50;1.00;;;;;;5068851;28;20380;-57
2022/11/01 02:59:48;;;;;;;18.83;9.07;;;13.50;1.00;;;;;;5069537;28;20380;-52
2022/11/01 03:02:20;;;;;;;16.20;8.05;;;13.40;1.00;;;;;;5071758;28;20383;-52
2022/11/01 03:04:46;;;;;;;16.20;8.20;;;13.30;1.00;;;;;;5073545;28;20383;-52
2022/11/01 03:07:14;;;;;;;17.23;8.18;;;13.40;1.00;;;;;;5073877;28;20383;-52
2022/11/01 03:09:41;;;;;;;15.38;8.43;;;13.50;1.00;;;;;;5072890;28;20451;-52
2022/11/01 03:12:19;;;;;;;12.63;7.50;;;13.60;1.00;;;;;;5073616;28;20372;-52
2022/11/01 03:15:01;;;;;;;17.83;7.40;;;13.70;1.00;;;;;;5072957;28;20940;-52
2022/11/01 03:17:50;;;;;;;15.70;8.10;;;13.70;1.00;;;;;;5072832;28;20495;-52
2022/11/01 03:20:46;;;;;;;15.55;7.97;;;13.80;1.00;;;;;;5073112;28;20482;-52
2022/11/01 03:23:18;;;;;;;15.18;7.63;;;13.80;1.00;;;;;;5073395;28;20371;-52
2022/11/01 03:25:49;;;;;;;16.85;7.93;;;13.70;1.00;;;;;;5073312;28;20445;-52
2022/11/01 03:28:21;;;;;;;16.45;8.00;;;13.60;1.00;;;;;;5073568;28;20356;-52
2022/11/01 03:30:58;;;;;;;14.47;6.80;;;13.70;1.00;;;;;;5073494;28;20461;-56
2022/11/01 03:33:26;;;;;;;15.75;6.68;;;13.90;1.00;;;;;;5072742;28;20480;-53
2022/11/01 03:35:56;;;;;;;12.90;6.65;;;13.90;1.00;;;;;;5073581;28;20388;-52
2022/11/01 03:38:26;;;;;;;15.88;6.93;;;13.90;1.00;;;;;;5072805;28;20474;-57
2022/11/01 03:41:00;;;;;;;17.65;6.60;;;14.00;99.90;;;;;;5072977;28;20444;-53
2022/11/01 03:43:28;;;;;;;13.75;7.13;;;14.00;99.90;;;;;;5073223;28;20932;-53
2022/11/01 03:45:54;;;;;;;14.33;6.43;;;14.00;99.90;;;;;;5073347;28;20751;-52
2022/11/01 03:48:19;;;;;;;14.75;7.10;;;14.10;99.90;;;;;;5073172;28;20379;-57
2022/11/01 03:50:49;;;;;;;13.63;6.67;;;14.10;99.90;;;;;;5072728;28;20455;-52
2022/11/01 03:53:15;;;;;;;13.57;6.47;;;14.20;99.90;;;;;;5073047;28;20389;-52
2022/11/01 03:55:41;;;;;;;13.00;6.28;;;14.30;99.90;;;;;;5072827;28;20467;-52
2022/11/01 03:58:07;;;;;;;12.73;6.40;;;14.40;99.90;;;;;;5072750;28;20719;-53
2022/11/01 04:00:39;;;;;;;12.45;5.80;;;14.30;99.90;;;;;;5072453;28;20429;-52
2022/11/01 04:03:05;;;;;;;15.88;5.60;;;14.30;99.90;;;;;;5072837;28;21230;-52
2022/11/01 04:05:32;;;;;;;11.13;5.50;;;14.30;99.90;;;;;;5072046;28;20399;-53
2022/11/01 04:07:57;;;;;;;9.93;4.68;;;14.40;99.90;;;;;;5072722;28;20435;-52
2022/11/01 04:10:25;;;;;;;13.82;5.65;;;14.50;99.90;;;;;;5072034;28;20375;-57
2022/11/01 04:12:51;;;;;;;13.55;5.18;;;14.50;99.90;;;;;;5071774;28;20380;-54
2022/11/01 04:21:06;;;;;;;10.50;4.50;;;14.60;1.00;;;;;;5072171;28;20394;-53
2022/11/01 04:23:32;;;;;;;11.40;4.10;;;14.80;1.00;;;;;;5071619;28;20372;-52
2022/11/01 04:25:58;;;;;;;14.85;3.95;;;14.90;99.90;;;;;;5071950;28;20383;-52
2022/11/01 04:28:24;;;;;;;15.30;4.50;;;15.00;99.90;;;;;;5071418;28;20759;-58
2022/11/01 04:30:50;;;;;;;14.32;5.10;;;15.10;1.00;;;;;;5072164;28;20380;-52
2022/11/01 04:33:15;;;;;;;11.07;3.60;;;15.20;99.90;;;;;;5071683;28;20415;-52
2022/11/01 04:35:41;;;;;;;9.87;3.70;;;15.30;1.00;;;;;;5070701;28;20468;-52
2022/11/01 04:38:09;;;;;;;10.50;3.63;;;15.40;99.90;;;;;;5071670;28;20388;-52
2022/11/01 04:40:35;;;;;;;11.32;3.53;;;15.50;1.00;;;;;;5070952;28;20840;-53
2022/11/01 04:43:00;;;;;;;10.65;3.90;;;15.70;99.90;;;;;;5072275;28;20408;-52
2022/11/01 04:45:27;;;;;;;10.03;3.60;;;15.80;1.00;;;;;;5071244;28;20733;-53
2022/11/01 04:48:14;;;;;;;10.95;4.00;;;15.80;1.00;;;;;;5071503;28;20384;-52
2022/11/01 04:50:40;;;;;;;13.30;3.47;;;15.90;1.00;;;;;;5071034;28;20398;-52
2022/11/01 04:53:07;;;;;;;9.88;3.35;;;16.00;1.00;;;;;;5071416;28;20478;-53
2022/11/01 04:55:33;;;;;;;9.57;3.30;;;16.00;1.00;;;;;;5070710;28;20407;-52
2022/11/01 04:57:58;;;;;;;8.90;3.05;;;15.90;1.00;;;;;;5071288;28;20517;-52
2022/11/01 05:00:25;;;;;;;11.25;3.72;;;15.80;99.90;;;;;;5071342;28;20483;-57
2022/11/01 05:02:51;;;;;;;11.93;3.97;;;15.60;99.90;;;;;;5071251;28;20812;-52
2022/11/01 05:05:18;;;;;;;12.57;4.25;;;15.50;1.00;;;;;;5071422;28;20529;-52
2022/11/01 05:07:44;;;;;;;11.98;4.60;;;15.40;1.00;;;;;;5069030;28;20970;-52
2022/11/01 05:10:10;;;;;;;12.68;5.03;;;15.20;13.80;;;;;;5053753;28;20877;-52
2022/11/01 05:12:37;;;;;;;12.82;4.55;;;15.20;99.90;;;;;;5063790;28;20404;-52
2022/11/01 05:15:03;;;;;;;12.20;4.88;;;15.20;99.90;;;;;;5051264;28;20411;-52
2022/11/01 05:17:29;;;;;;;10.88;4.50;;;15.20;1.00;;;;;;5050572;28;20396;-52
2022/11/01 05:19:55;;;;;;;14.07;6.13;;;15.30;1.00;;;;;;5051203;28;20382;-52
2022/11/01 05:22:20;;;;;;;13.90;4.80;;;15.30;99.90;;;;;;5051035;28;20716;-57
2022/11/01 05:24:46;;;;;;;9.82;4.47;;;15.20;99.90;;;;;;5050467;28;20421;-53
2022/11/01 05:27:12;;;;;;;12.60;4.60;;;15.10;1.00;;;;;;5051314;28;20719;-52
2022/11/01 05:29:37;;;;;;;11.07;4.17;;;15.10;99.90;;;;;;5050049;28;20430;-55
2022/11/01 05:32:03;;;;;;;12.77;4.20;;;15.10;1.00;;;;;;5050689;28;20459;-52
2022/11/01 05:34:28;;;;;;;14.07;4.45;;;15.30;99.90;;;;;;5049957;28;20449;-52
2022/11/01 05:36:54;;;;;;;10.97;4.13;;;15.30;99.90;;;;;;5050744;28;20786;-52
2022/11/01 05:39:20;;;;;;;9.40;3.30;;;15.20;1.00;;;;;;5050827;28;20385;-52
2022/11/01 05:41:45;;;;;;;7.40;3.00;;;15.10;1.00;;;;;;5049716;28;20389;-52
2022/11/01 05:44:11;;;;;;;9.47;4.20;;;15.20;99.80;;;;;;5050653;28;20397;-52
2022/11/01 05:46:36;;;;;;;9.40;3.37;;;15.30;33.80;;;;;;5049700;28;20442;-52
2022/11/01 05:49:02;;;;;;;9.80;4.10;;;15.40;99.90;;;;;;5050657;28;20378;-54
2022/11/01 05:51:27;;;;;;;10.60;3.80;;;15.40;99.90;;;;;;5054147;28;20412;-52
2022/11/01 05:53:53;;;;;;;8.90;3.00;;;15.20;99.90;;;;;;5063370;28;20494;-52
2022/11/01 05:56:19;;;;;;;9.00;2.63;;;15.30;99.90;;;;;;5067564;28;20719;-52
2022/11/01 05:58:46;;;;;;;7.23;2.70;;;15.10;99.90;;;;;;5068324;28;20403;-55
2022/11/01 06:01:12;;;;;;;8.18;2.70;;;15.20;99.90;;;;;;5068782;28;20903;-51
2022/11/01 06:03:37;;;;;;;6.22;2.10;;;15.10;99.90;;;;;;5060874;28;20420;-51
2022/11/01 06:06:03;;;;;;;7.30;2.40;;;15.10;1.00;;;;;;5050379;28;20385;-51
2022/11/01 06:08:29;;;;;;;8.13;1.90;;;15.30;99.90;;;;;;5049420;28;20882;-52
2022/11/01 06:11:05;;;;;;;9.63;2.10;;;15.40;99.90;;;;;;5066225;28;20413;-52
2022/11/01 06:13:32;;;;;;;7.40;1.90;;;15.50;99.90;;;;;;5069311;28;20371;-53
2022/11/01 06:16:03;;;;;;;5.88;1.85;;;15.40;99.90;;;;;;5070238;28;20376;-52
2022/11/01 06:18:29;;;;;;;6.30;2.00;;;15.40;99.90;;;;;;5057014;28;20463;-53
2022/11/01 06:20:56;;;;;;;8.23;2.20;;;15.50;99.90;;;;;;5049924;28;20378;-52
2022/11/01 06:23:22;;;;;;;6.50;1.80;;;15.50;99.90;;;;;;5050196;28;20385;-52
2022/11/01 06:25:47;;;;;;;5.88;1.77;;;15.50;99.90;;;;;;5049897;28;20377;-52
2022/11/01 06:28:14;;;;;;;8.90;2.07;;;15.50;99.90;;;;;;5056477;28;20764;-57
2022/11/01 06:30:40;;;;;;;8.68;2.10;;;15.60;99.90;;;;;;5058792;28;20539;-52
2022/11/01 06:33:08;;;;;;;7.10;2.00;;;15.60;99.90;;;;;;5051462;28;20872;-52
2022/11/01 06:35:33;;;;;;;6.35;2.00;;;15.60;99.90;;;;;;5062534;28;20486;-52
2022/11/01 06:38:06;;;;;;;6.50;2.17;;;15.60;99.90;;;;;;5071285;28;20551;-52
2022/11/01 06:40:33;;;;;;;5.68;1.90;;;15.60;99.90;;;;;;5057079;28;20412;-52
2022/11/01 06:43:00;;;;;;;6.88;1.70;;;15.60;99.90;;;;;;5049629;28;20401;-52
2022/11/01 06:45:26;;;;;;;7.43;2.17;;;15.50;99.90;;;;;;5050090;28;20435;-57
2022/11/01 06:47:52;;;;;;;7.33;2.03;;;15.50;99.90;;;;;;5085081;28;20378;-52
2022/11/01 06:50:17;;;;;;;8.23;1.80;;;15.60;99.90;;;;;;5060598;28;20383;-52
2022/11/01 06:52:43;;;;;;;7.80;1.90;;;15.60;99.90;;;;;;5067382;28;20403;-52
2022/11/01 06:55:10;;;;;;;7.80;2.00;;;15.70;99.90;;;;;;5051449;28;20847;-55
2022/11/01 06:57:35;;;;;;;10.50;1.30;;;15.70;99.90;;;;;;5063347;28;20515;-53
2022/11/01 07:00:01;;;;;;;6.32;1.50;;;15.80;99.90;;;;;;5073133;28;20949;-53
2022/11/01 07:02:27;;;;;;;6.40;1.90;;;15.80;99.90;;;;;;5048885;28;20408;-53
2022/11/01 07:04:52;;;;;;;7.90;1.13;;;15.80;56.00;;;;;;5049405;28;20810;-53
2022/11/01 07:07:18;;;;;;;5.20;1.40;;;15.80;1.00;;;;;;5062939;28;20394;-52
2022/11/01 07:09:43;;;;;;;7.57;1.30;;;15.80;1.00;;;;;;5059618;28;20947;-53
2022/11/01 07:12:09;;;;;;;4.57;1.20;;;15.90;1.00;;;;;;5062418;28;20488;-53
2022/11/01 07:14:35;;;;;;;7.10;1.10;;;15.80;1.00;;;;;;5058966;28;20422;-53
2022/11/01 07:17:00;;;;;;;4.60;1.10;;;15.80;1.00;;;;;;5054206;28;20413;-53
2022/11/01 07:19:26;;;;;;;4.68;1.00;;;15.80;1.00;;;;;;5067117;28;20387;-58
2022/11/01 07:21:51;;;;;;;7.20;1.40;;;15.80;1.00;;;;;;5068876;28;20372;-53
2022/11/01 07:24:17;;;;;;;5.80;1.00;;;15.90;1.00;;;;;;5054081;28;20399;-53
2022/11/01 07:26:42;;;;;;;5.23;1.10;;;16.00;1.00;;;;;;5060477;28;20412;-53
2022/11/01 07:29:08;;;;;;;4.40;1.00;;;16.00;1.00;;;;;;5056530;28;20806;-53
2022/11/01 07:31:34;;;;;;;4.60;1.00;;;16.20;1.00;;;;;;5054482;28;20408;-53
2022/11/01 07:33:59;;;;;;;5.10;1.03;;;16.40;1.00;;;;;;5048709;28;20417;-53
2022/11/01 07:36:25;;;;;;;5.60;1.00;;;16.40;99.90;;;;;;5048239;28;20481;-57
2022/11/01 07:38:50;;;;;;;5.20;0.90;;;16.40;99.90;;;;;;5055415;28;20405;-53
2022/11/01 07:41:16;;;;;;;5.45;0.90;;;16.30;99.90;;;;;;5056972;28;20401;-53
2022/11/01 07:43:41;;;;;;;4.25;0.90;;;16.30;99.90;;;;;;5051897;28;20461;-54
2022/11/01 07:46:07;;;;;;;4.60;0.90;;;16.40;99.90;;;;;;5052017;28;20815;-53
2022/11/01 07:48:35;;;;;;;4.50;0.80;;;16.40;81.60;;;;;;5059867;28;20404;-53
2022/11/01 07:51:02;;;;;;;4.68;0.70;;;16.30;29.10;;;;;;5066704;28;20386;-54
2022/11/01 07:53:27;;;;;;;4.27;0.70;;;16.50;97.30;;;;;;5062655;28;20840;-57
2022/11/01 07:55:53;;;;;;;4.00;0.50;;;16.40;99.90;;;;;;5071738;28;20395;-53
2022/11/01 07:58:19;;;;;;;4.10;0.60;;;16.50;99.90;;;;;;5065476;28;20964;-53
2022/11/01 08:00:44;;;;;;;4.50;0.80;;;16.60;99.90;;;;;;5058239;28;20468;-52
2022/11/01 08:03:15;;;;;;;5.77;0.73;;;16.60;1.00;;;;;;5069907;28;20397;-53
2022/11/01 08:05:42;;;;;;;3.97;0.50;;;16.50;1.00;;;;;;5069443;28;21147;-52
2022/11/01 08:08:08;;;;;;;4.90;0.60;;;16.50;1.00;;;;;;5073105;28;20758;-53
2022/11/01 08:10:35;;;;;;;4.10;0.70;;;16.50;1.00;;;;;;5060364;28;20402;-53
2022/11/01 08:13:07;;;;;;;4.50;0.60;;;17.90;1.00;;;;;;5063367;28;20408;-53
2022/11/01 08:15:33;;;;;;;4.90;0.60;;;16.70;1.00;;;;;;5065134;28;20875;-53
2022/11/01 08:17:59;;;;;;;4.28;0.60;;;16.80;99.90;;;;;;5065886;28;20817;-53
2022/11/01 08:20:26;;;;;;;4.28;0.60;;;16.90;99.90;;;;;;5065362;28;20394;-58
2022/11/01 08:22:53;;;;;;;4.03;0.60;;;17.00;1.00;;;;;;5061509;28;20408;-54
2022/11/01 08:25:19;;;;;;;4.60;0.60;;;17.00;1.00;;;;;;5060910;28;20487;-53
2022/11/01 08:27:45;;;;;;;4.80;0.80;;;16.80;99.90;;;;;;5063073;28;21011;-53
2022/11/01 08:30:12;;;;;;;5.67;0.60;;;16.90;99.90;;;;;;5066898;28;20880;-53
2022/11/01 08:32:38;;;;;;;4.20;0.80;;;16.80;1.00;;;;;;5060753;28;20429;-54
2022/11/01 08:35:04;;;;;;;4.30;0.80;;;16.90;99.90;;;;;;5062765;28;20405;-53
2022/11/01 08:37:29;;;;;;;5.25;0.95;;;17.10;99.90;;;;;;5061932;28;20473;-53
2022/11/01 08:39:55;;;;;;;4.30;0.70;;;17.20;1.00;;;;;;5063149;28;20393;-55
2022/11/01 08:42:20;;;;;;;4.70;0.70;;;16.90;1.00;;;;;;5060860;28;20791;-54
2022/11/01 08:44:46;;;;;;;7.20;1.90;;;16.90;99.90;;;;;;5061413;28;20433;-54
2022/11/01 08:47:12;;;;;;;4.10;0.60;;;16.90;99.90;;;;;;5062552;28;20892;-55
2022/11/01 08:49:37;;;;;;;4.80;0.80;;;15.40;99.90;;;;;;5055796;28;20401;-53
2022/11/01 08:52:04;;;;;;;4.30;0.70;;;16.80;1.00;;;;;;5057487;28;20403;-54
2022/11/01 08:54:30;;;;;;;4.90;0.65;;;16.80;1.00;;;;;;5060847;28;20491;-55
2022/11/01 08:56:56;;;;;;;4.32;0.50;;;16.90;1.00;;;;;;5060966;28;20896;-57
2022/11/01 08:59:22;;;;;;;5.03;0.80;;;16.90;99.90;;;;;;5054647;28;20409;-55
2022/11/01 09:01:49;;;;;;;6.90;1.00;;;16.90;29.80;;;;;;5051051;28;22171;-53
2022/11/01 09:04:16;;;;;;;7.47;1.00;;;17.00;19.40;;;;;;5057345;28;20388;-54
2022/11/01 09:06:41;;;;;;;4.20;0.60;;;17.00;1.00;;;;;;5053715;28;20455;-59
2022/11/01 09:09:09;;;;;;;7.10;0.90;;;17.00;1.00;;;;;;5058999;28;20488;-54
2022/11/01 09:11:36;;;;;;;5.13;1.00;;;16.90;1.00;;;;;;5058905;28;20406;-54
2022/11/01 09:14:01;;;;;;;6.30;0.70;;;17.10;1.00;;;;;;5051466;28;20933;-53
2022/11/01 09:16:27;;;;;;;5.80;0.80;;;17.40;1.00;;;;;;5056873;28;20413;-58
2022/11/01 09:18:53;;;;;;;4.75;0.70;;;17.70;1.00;;;;;;5063169;28;20479;-54
2022/11/01 09:21:18;;;;;;;5.27;0.70;;;17.80;1.00;;;;;;5057893;28;20430;-54
2022/11/01 09:23:47;;;;;;;5.18;0.90;;;18.10;1.00;;;;;;5057621;28;20427;-53
2022/11/01 09:26:13;;;;;;;6.80;0.75;;;18.10;1.00;;;;;;5058245;28;20406;-53
2022/11/01 09:28:39;;;;;;;5.27;0.70;;;18.10;1.00;;;;;;5049907;28;20409;-53
2022/11/01 09:31:07;;;;;;;4.68;0.88;;;;;;;;;;5053430;28;20403;-54
2022/11/01 09:33:33;;;;;;;4.55;0.70;;;;;;;;;;5054207;28;20539;-53
2022/11/01 09:35:59;;;;;;;5.70;0.70;;;;;;;;;;5054061;28;20747;-54
2022/11/01 09:38:26;;;;;;;4.40;0.60;;;;;;;;;;5060063;28;20381;-58
2022/11/01 09:41:04;;;;;;;4.90;1.20;;;;;;;;;;5057381;28;20408;-53
2022/11/01 09:43:33;;;;;;;4.60;0.60;;;23.10;1.00;;;;;;5057366;28;20426;-54
2022/11/01 09:46:01;;;;;;;4.53;0.60;;;22.40;1.00;;;;;;5070386;28;20384;-53
2022/11/01 09:48:29;;;;;;;4.93;0.70;;;23.30;1.00;;;;;;5069793;28;20859;-58
2022/11/01 09:50:55;;;;;;;6.10;0.80;;;21.50;1.00;;;;;;5065202;28;20490;-53
2022/11/01 09:53:24;;;;;;;5.30;0.88;;;23.00;1.00;;;;;;5069787;28;20466;-54
2022/11/01 09:56:11;;;;;;;6.00;0.90;;;23.10;1.00;;;;;;5069368;28;20407;-53
2022/11/01 09:58:41;;;;;;;5.00;0.80;;;22.80;1.00;;;;;;5067193;28;20466;-53
2022/11/01 10:01:16;;;;;;;5.60;1.00;;;22.70;1.00;;;;;;5069696;28;20383;-54
2022/11/01 10:04:04;;;;;;;5.85;1.20;;;23.10;1.00;;;;;;5064625;28;20399;-53
2022/11/01 10:06:37;;;;;;;5.43;0.70;;;22.90;1.00;;;;;;5067477;28;20861;-54
2022/11/01 10:09:10;;;;;;;5.00;1.10;;;22.20;99.90;;;;;;5069178;28;20503;-52
2022/11/01 10:12:01;;;;;;;4.70;0.80;;;21.70;99.90;;;;;;5059151;28;20395;-56
2022/11/01 10:14:40;;;;;;;5.50;0.80;;;21.10;99.90;;;;;;5066466;28;20814;-58
2022/11/01 10:17:12;;;;;;;5.25;0.90;;;20.30;99.90;;;;;;5067071;28;20384;-53
2022/11/01 10:19:40;;;;;;;4.90;0.82;;;20.00;99.90;;;;;;5069250;28;20394;-53
2022/11/01 10:22:17;;;;;;;5.93;1.15;;;20.20;99.90;;;;;;5070301;28;20884;-54
2022/11/01 10:24:54;;;;;;;7.53;1.50;;;19.80;99.90;;;;;;5069144;28;20871;-54
2022/11/01 10:27:28;;;;;;;5.70;1.50;;;19.70;99.90;;;;;;5069983;28;20387;-54
2022/11/01 10:30:03;;;;;;;7.57;1.17;;;19.80;99.90;;;;;;5069985;28;20384;-53
2022/11/01 10:33:17;;;;;;;5.38;1.05;;;20.10;1.00;;;;;;5068686;28;20415;-57
2022/11/01 10:35:50;;;;;;;5.10;1.15;;;20.40;1.00;;;;;;5047044;28;20474;-53
2022/11/01 10:38:36;;;;;;;6.97;1.00;;;20.40;1.00;;;;;;5067926;28;20453;-53
2022/11/01 10:41:27;;;;;;;4.60;0.80;;;20.40;1.00;;;;;;5063808;28;20412;-53
2022/11/01 10:44:01;;;;;;;5.83;1.03;;;20.50;1.00;;;;;;5055232;28;20402;-53
2022/11/01 10:46:41;;;;;;;5.90;1.40;;;20.40;1.00;;;;;;5066983;28;20392;-58
2022/11/01 10:49:32;;;;;;;6.43;0.90;;;20.50;99.90;;;;;;5051393;28;20729;-53
2022/11/01 10:52:02;;;;;;;7.20;1.40;;;20.30;99.90;;;;;;5068034;28;20468;-53
2022/11/01 10:54:30;;;;;;;4.82;0.88;;;20.40;99.90;;;;;;5068563;28;20436;-58
2022/11/01 10:57:00;;;;;;;6.23;1.20;;;20.50;99.90;;;;;;5069034;28;20831;-53
2022/11/01 10:59:39;;;;;;;7.60;1.60;;;20.60;99.90;;;;;;5069166;28;20391;-58
2022/11/01 11:02:16;;;;;;;6.00;1.00;;;20.90;99.90;;;;;;5067241;28;20738;-53
2022/11/01 11:04:42;;;;;;;6.60;1.40;;;21.10;99.90;;;;;;5049270;28;20474;-53
2022/11/01 11:07:12;;;;;;;5.93;1.40;;;21.10;99.90;;;;;;5068848;28;20470;-53
2022/11/01 11:09:38;;;;;;;6.20;1.00;;;21.10;99.90;;;;;;5067991;28;20390;-53
2022/11/01 11:12:34;;;;;;;5.30;1.00;;;20.80;99.90;;;;;;5066900;28;20478;-53
2022/11/01 11:15:15;;;;;;;5.70;1.10;;;20.90;99.90;;;;;;5050982;28;20408;-51
2022/11/01 11:17:43;;;;;;;6.80;1.30;;;20.80;99.90;;;;;;5065673;28;20388;-52
2022/11/01 11:20:10;;;;;;;6.13;1.50;;;20.40;99.90;;;;;;5068964;28;20380;-51
2022/11/01 11:22:41;;;;;;;5.90;1.20;;;20.30;99.90;;;;;;5069164;28;20463;-52
2022/11/01 11:25:16;;;;;;;5.88;1.25;;;20.20;99.90;;;;;;5065955;28;20865;-52
2022/11/01 11:27:48;;;;;;;7.25;1.10;;;20.30;99.90;;;;;;5068485;28;20740;-51
2022/11/01 11:30:27;;;;;;;6.40;1.20;;;20.30;99.90;;;;;;5070148;28;20926;-52
2022/11/01 11:32:53;;;;;;;5.40;0.90;;;20.40;99.90;;;;;;5066780;28;20403;-53
2022/11/01 11:35:23;;;;;;;5.05;1.10;;;20.70;99.90;;;;;;5071078;28;20407;-53
2022/11/01 11:38:02;;;;;;;5.22;1.00;;;20.80;99.90;;;;;;5070396;28;21024;-53
2022/11/01 11:40:39;;;;;;;4.85;1.02;;;20.50;99.90;;;;;;5067719;28;20836;-56
2022/11/01 11:43:17;;;;;;;8.10;1.45;;;20.40;99.90;;;;;;5070903;28;20376;-53
2022/11/01 11:45:43;;;;;;;8.48;1.50;;;20.30;99.90;;;;;;5061825;28;20407;-52
2022/11/01 11:48:20;;;;;;;9.82;1.90;;;19.90;99.90;;;;;;5070202;28;20379;-51
2022/11/01 11:50:46;;;;;;;8.33;1.97;;;19.30;99.90;;;;;;5067201;28;20419;-51
2022/11/01 11:53:19;;;;;;;8.38;1.40;;;19.10;99.90;;;;;;5069815;28;20876;-51
2022/11/01 11:55:54;;;;;;;5.60;1.30;;;19.00;99.90;;;;;;5068767;28;20881;-52
2022/11/01 11:58:25;;;;;;;6.67;1.50;;;18.60;99.90;;;;;;5072224;28;20383;-52
2022/11/01 12:01:03;;;;;;;8.05;1.50;;;18.40;99.90;;;;;;5069570;28;20418;-52
2022/11/01 12:03:36;;;;;;;6.37;1.43;;;18.20;1.00;;;;;;5069681;28;20396;-57
2022/11/01 12:06:07;;;;;;;6.15;1.13;;;18.10;1.00;;;;;;5069665;28;21822;-52
2022/11/01 12:08:45;;;;;;;7.20;1.70;;;18.00;1.00;;;;;;5069430;28;20467;-54
2022/11/01 12:11:12;;;;;;;7.05;1.40;;;18.00;1.00;;;;;;5071982;28;20419;-54
2022/11/01 12:13:40;;;;;;;5.35;1.17;;;18.00;1.00;;;;;;5071152;28;20379;-53
2022/11/01 12:16:12;;;;;;;6.20;1.50;;;17.90;1.00;;;;;;5072093;28;20382;-54
2022/11/01 12:18:52;;;;;;;5.90;1.50;;;17.80;1.00;;;;;;5051951;28;20502;-53
2022/11/01 12:21:23;;;;;;;7.57;1.52;;;17.60;1.00;;;;;;5066768;28;20419;-53
2022/11/01 12:23:53;;;;;;;5.47;1.27;;;17.60;1.00;;;;;;5066062;28;20401;-54
2022/11/01 12:26:21;;;;;;;9.10;1.70;;;17.60;1.00;;;;;;5052738;28;20396;-53
2022/11/01 12:28:57;;;;;;;7.15;1.60;;;17.50;1.00;;;;;;5071314;28;21146;-53
2022/11/01 12:31:23;;;;;;;7.10;1.63;;;17.60;1.00;;;;;;5072414;28;20387;-55
2022/11/01 12:34:16;;;;;;;9.10;1.60;;;17.60;1.00;;;;;;5070325;28;21050;-54
2022/11/01 12:36:49;;;;;;;7.15;1.50;;;17.70;1.00;;;;;;5049572;28;20408;-55
2022/11/01 12:39:44;;;;;;;7.35;2.28;;;17.80;1.00;;;;;;5069686;28;20793;-53
2022/11/01 12:42:18;;;;;;;8.75;1.80;;;18.00;1.00;;;;;;5071729;28;20380;-53
2022/11/01 12:44:53;;;;;;;7.00;1.80;;;18.20;1.00;;;;;;5070917;28;20372;-52
2022/11/01 12:47:40;;;;;;;8.70;1.60;;;18.40;1.00;;;;;;5071598;28;20380;-53
2022/11/01 12:50:41;;;;;;;7.07;1.40;;;18.60;1.00;;;;;;5072257;28;20817;-53
2022/11/01 12:53:13;;;;;;;8.52;1.23;;;18.80;1.00;;;;;;5085115;28;20385;-53
2022/11/01 12:55:40;;;;;;;5.90;1.20;;;18.70;1.00;;;;;;5091141;28;20424;-52
2022/11/01 12:58:17;;;;;;;7.60;1.30;;;18.80;1.00;;;;;;5091790;28;21068;-53
2022/11/01 13:00:46;;;;;;;7.55;1.40;;;18.40;1.00;;;;;;5091160;28;20377;-53
2022/11/01 13:03:56;;;;;;;6.00;1.30;;;18.20;1.00;;;;;;5091505;28;20476;-53
2022/11/01 13:06:51;;;;;;;6.20;1.45;;;18.60;1.00;;;;;;5065799;28;20386;-53
2022/11/01 13:09:34;;;;;;;5.75;1.30;;;19.00;1.00;;;;;;5083312;28;20737;-54
2022/11/01 13:12:06;;;;;;;6.40;1.40;;;18.90;99.90;;;;;;5063595;28;20403;-54
2022/11/01 13:15:00;;;;;;;6.70;1.50;;;18.90;99.90;;;;;;5069548;28;20404;-57